Time;durP1;ratioP1;P1;durP2;ratioP2;P2;SDS_P1;SDS_P2;PMS_P1;PMS_P2;Temp;Humidity;BMP_temperature;BMP_pressure;BME280_temperature;BME280_humidity;BME280_pressure;Samples;Min_cycle;Max_cycle;Signal;HPM_P1;HPM_P2
2021/10/24 00:01:42;;;;;;;15.90;11.57;;;9.60;99.90;;;;;;4924727;29;20083;-64
2021/10/24 00:04:07;;;;;;;22.33;11.70;;;9.60;99.90;;;;;;4943266;29;20040;-64
2021/10/24 00:06:33;;;;;;;16.02;11.57;;;9.50;99.90;;;;;;4911309;29;20040;-64
2021/10/24 00:08:59;;;;;;;18.83;11.32;;;9.50;99.90;;;;;;4927400;29;20103;-64
2021/10/24 00:11:25;;;;;;;14.07;11.77;;;9.40;99.90;;;;;;4927708;29;20095;-63
2021/10/24 00:13:50;;;;;;;16.25;11.15;;;9.40;99.90;;;;;;4943590;29;20083;-63
2021/10/24 00:16:16;;;;;;;17.75;12.77;;;9.40;99.90;;;;;;4927243;29;20036;-63
2021/10/24 00:18:42;;;;;;;18.25;12.18;;;9.30;99.90;;;;;;4912586;29;20059;-64
2021/10/24 00:21:08;;;;;;;17.13;13.05;;;9.30;99.90;;;;;;4912099;29;20054;-64
2021/10/24 00:23:33;;;;;;;16.80;11.23;;;9.30;99.90;;;;;;4944063;29;20153;-64
2021/10/24 00:25:59;;;;;;;18.70;11.98;;;9.30;99.90;;;;;;4927424;29;20489;-64
2021/10/24 00:28:25;;;;;;;20.40;11.43;;;9.20;99.90;;;;;;4943231;29;20044;-64
2021/10/24 00:30:52;;;;;;;15.45;12.32;;;9.20;99.90;;;;;;4927020;29;20044;-64
2021/10/24 00:33:18;;;;;;;15.77;11.30;;;9.20;99.90;;;;;;4932851;29;20107;-64
2021/10/24 00:35:45;;;;;;;16.02;12.10;;;9.20;99.90;;;;;;4911870;29;20056;-64
2021/10/24 00:38:11;;;;;;;21.30;12.43;;;9.20;99.90;;;;;;4928337;29;20052;-64
2021/10/24 00:40:37;;;;;;;16.38;11.32;;;9.20;99.90;;;;;;4929579;29;20516;-64
2021/10/24 00:43:03;;;;;;;17.45;11.90;;;9.10;99.90;;;;;;4928627;29;20048;-64
2021/10/24 00:45:29;;;;;;;16.67;12.35;;;9.10;99.90;;;;;;4943375;29;20052;-64
2021/10/24 00:47:55;;;;;;;15.65;11.25;;;9.10;99.90;;;;;;4928882;29;20127;-64
2021/10/24 00:50:22;;;;;;;18.25;12.05;;;9.10;99.90;;;;;;4928213;29;20048;-64
2021/10/24 00:52:49;;;;;;;23.85;11.32;;;9.10;99.90;;;;;;4928984;29;20466;-64
2021/10/24 00:55:15;;;;;;;18.33;11.27;;;9.10;99.90;;;;;;4911832;29;20117;-64
2021/10/24 00:57:42;;;;;;;14.32;10.38;;;9.10;99.90;;;;;;4927045;29;20686;-64
2021/10/24 01:00:11;;;;;;;15.25;10.55;;;9.10;99.90;;;;;;4910245;29;20083;-64
2021/10/24 01:02:37;;;;;;;17.17;11.52;;;9.10;99.90;;;;;;4942818;29;20052;-63
2021/10/24 01:05:05;;;;;;;14.63;10.57;;;9.10;99.90;;;;;;4942495;29;20513;-64
2021/10/24 01:07:32;;;;;;;16.52;11.25;;;9.10;99.90;;;;;;4906691;29;20048;-64
2021/10/24 01:09:59;;;;;;;15.20;10.50;;;9.00;99.90;;;;;;4910916;29;20497;-64
2021/10/24 01:12:25;;;;;;;17.92;11.23;;;9.00;99.90;;;;;;4910735;29;20051;-64
2021/10/24 01:14:51;;;;;;;15.20;10.43;;;9.00;99.90;;;;;;4906904;29;20082;-64
2021/10/24 01:17:17;;;;;;;16.15;10.52;;;9.00;99.90;;;;;;4942653;29;20438;-64
2021/10/24 01:19:43;;;;;;;16.55;11.25;;;9.00;99.90;;;;;;4909997;29;20420;-64
2021/10/24 01:22:09;;;;;;;17.58;11.88;;;9.10;99.90;;;;;;4928038;29;20056;-64
2021/10/24 01:24:34;;;;;;;16.38;11.07;;;9.10;99.90;;;;;;4938221;29;20110;-64
2021/10/24 01:27:00;;;;;;;17.33;11.35;;;9.00;99.90;;;;;;4927471;29;20092;-64
2021/10/24 01:29:26;;;;;;;19.52;12.40;;;9.00;99.90;;;;;;4927522;29;20037;-64
2021/10/24 01:31:52;;;;;;;17.90;12.35;;;9.00;99.90;;;;;;4942336;29;20067;-64
2021/10/24 01:34:18;;;;;;;18.73;12.35;;;9.00;99.90;;;;;;4907597;29;20100;-64
2021/10/24 01:36:44;;;;;;;15.30;11.38;;;8.90;99.90;;;;;;4911772;29;20087;-64
2021/10/24 01:39:10;;;;;;;19.38;12.18;;;8.90;99.90;;;;;;4928485;29;20044;-65
2021/10/24 01:41:35;;;;;;;20.67;11.57;;;8.80;99.90;;;;;;4942086;29;20059;-64
2021/10/24 01:44:02;;;;;;;17.33;11.60;;;8.80;99.90;;;;;;4941930;29;20076;-64
2021/10/24 01:46:28;;;;;;;15.48;11.45;;;8.70;99.90;;;;;;4910939;29;20390;-64
2021/10/24 01:48:54;;;;;;;21.67;12.40;;;8.70;99.90;;;;;;4927987;29;20076;-64
2021/10/24 01:51:21;;;;;;;20.60;12.05;;;8.70;99.90;;;;;;4928088;29;20130;-64
2021/10/24 01:53:48;;;;;;;17.00;12.57;;;8.60;99.90;;;;;;4911492;29;20083;-64
2021/10/24 01:56:14;;;;;;;18.63;11.65;;;8.60;99.90;;;;;;4910619;29;20465;-64
2021/10/24 01:58:40;;;;;;;19.33;11.02;;;8.60;99.90;;;;;;4910096;29;20052;-65
2021/10/24 02:01:07;;;;;;;14.38;10.80;;;8.60;99.90;;;;;;4927296;29;20048;-64
2021/10/24 02:03:33;;;;;;;16.67;10.65;;;8.50;99.90;;;;;;4927383;29;20115;-65
2021/10/24 02:05:58;;;;;;;19.30;11.98;;;8.50;99.90;;;;;;4927160;29;20040;-64
2021/10/24 02:08:24;;;;;;;14.68;10.95;;;8.40;99.90;;;;;;4927257;29;20048;-64
2021/10/24 02:10:51;;;;;;;19.65;11.27;;;8.50;99.90;;;;;;4910354;29;20076;-65
2021/10/24 02:13:17;;;;;;;18.85;11.63;;;8.40;99.90;;;;;;4910644;29;20111;-64
2021/10/24 02:15:43;;;;;;;16.85;11.30;;;8.40;99.90;;;;;;4942444;29;20068;-65
2021/10/24 02:18:13;;;;;;;16.23;11.80;;;8.30;99.90;;;;;;4945229;29;20044;-64
2021/10/24 02:20:40;;;;;;;14.98;11.02;;;8.20;99.90;;;;;;4913717;29;20044;-65
2021/10/24 02:23:07;;;;;;;18.20;10.23;;;8.30;99.90;;;;;;4907732;29;20409;-65
2021/10/24 02:25:33;;;;;;;18.02;11.57;;;8.20;99.90;;;;;;4911804;29;20052;-65
2021/10/24 02:28:00;;;;;;;18.10;11.77;;;8.10;99.90;;;;;;4912922;29;20067;-64
2021/10/24 02:30:25;;;;;;;16.40;11.50;;;8.10;99.90;;;;;;4930510;29;20043;-64
2021/10/24 02:32:51;;;;;;;13.75;10.27;;;8.10;99.90;;;;;;4930282;29;20047;-64
2021/10/24 02:35:19;;;;;;;17.25;10.60;;;8.00;99.90;;;;;;4913304;29;20060;-64
2021/10/24 02:37:45;;;;;;;16.58;10.05;;;8.00;99.90;;;;;;4930184;29;20583;-64
2021/10/24 02:40:12;;;;;;;15.32;10.05;;;7.90;99.90;;;;;;4931044;29;20071;-64
2021/10/24 02:42:38;;;;;;;16.00;10.20;;;7.90;99.90;;;;;;4897050;29;20044;-64
2021/10/24 02:45:05;;;;;;;16.42;10.82;;;7.90;99.90;;;;;;4913366;29;20051;-64
2021/10/24 02:47:31;;;;;;;18.60;10.60;;;7.90;99.90;;;;;;4913866;29;20059;-64
2021/10/24 02:49:57;;;;;;;16.05;10.63;;;8.00;99.90;;;;;;4912492;29;20048;-64
2021/10/24 02:52:23;;;;;;;15.00;10.63;;;7.90;99.90;;;;;;4930074;29;20056;-64
2021/10/24 02:54:48;;;;;;;17.38;10.65;;;7.90;99.90;;;;;;4944910;29;20133;-64
2021/10/24 02:57:14;;;;;;;16.42;10.88;;;7.90;99.90;;;;;;4945569;29;20445;-64
2021/10/24 02:59:41;;;;;;;18.88;10.80;;;7.90;99.90;;;;;;4945233;29;20056;-64
2021/10/24 03:02:07;;;;;;;14.88;10.95;;;7.80;99.90;;;;;;4911842;29;20044;-64
2021/10/24 03:04:33;;;;;;;15.73;10.70;;;7.80;99.90;;;;;;4913863;29;20100;-64
2021/10/24 03:06:58;;;;;;;15.43;10.73;;;7.80;99.90;;;;;;4944127;29;20058;-64
2021/10/24 03:09:24;;;;;;;15.60;10.95;;;7.70;99.90;;;;;;4944736;29;20059;-64
2021/10/24 03:11:50;;;;;;;14.18;10.70;;;7.70;99.90;;;;;;4914018;29;20405;-64
2021/10/24 03:14:16;;;;;;;16.88;12.00;;;7.60;99.90;;;;;;4944690;29;20086;-64
2021/10/24 03:16:43;;;;;;;14.95;11.43;;;7.60;99.90;;;;;;4930438;29;20090;-64
2021/10/24 03:19:09;;;;;;;15.45;11.20;;;7.60;99.90;;;;;;4912172;29;20040;-64
2021/10/24 03:21:35;;;;;;;17.33;10.98;;;7.60;99.90;;;;;;4912553;29;20048;-64
2021/10/24 03:24:02;;;;;;;16.45;11.30;;;7.50;99.90;;;;;;4943991;29;20497;-64
2021/10/24 03:26:28;;;;;;;18.42;11.75;;;7.50;99.90;;;;;;4912818;29;20047;-64
2021/10/24 03:28:54;;;;;;;18.38;11.77;;;7.40;99.90;;;;;;4911830;29;20527;-64
2021/10/24 03:31:20;;;;;;;18.25;11.50;;;7.30;99.90;;;;;;4930028;29;20036;-64
2021/10/24 03:33:47;;;;;;;17.90;11.70;;;7.30;99.90;;;;;;4923839;29;20067;-64
2021/10/24 03:36:13;;;;;;;18.33;11.50;;;7.30;99.90;;;;;;4895130;29;20112;-64
2021/10/24 03:38:39;;;;;;;16.08;11.15;;;7.20;99.90;;;;;;4912513;29;20036;-64
2021/10/24 03:41:05;;;;;;;17.98;11.60;;;7.20;99.90;;;;;;4928618;29;20087;-64
2021/10/24 03:43:31;;;;;;;17.70;11.85;;;7.20;99.90;;;;;;4930144;29;20048;-64
2021/10/24 03:45:58;;;;;;;14.10;10.82;;;7.10;99.90;;;;;;4925334;29;20458;-64
2021/10/24 03:48:24;;;;;;;16.38;11.85;;;7.10;99.90;;;;;;4929367;29;20048;-64
2021/10/24 03:50:49;;;;;;;17.08;12.00;;;7.10;99.90;;;;;;4911583;29;20058;-64
2021/10/24 03:53:16;;;;;;;17.60;11.65;;;7.10;99.90;;;;;;4912166;29;20051;-64
2021/10/24 03:55:42;;;;;;;16.70;12.32;;;7.00;99.90;;;;;;4911882;29;20416;-65
2021/10/24 03:58:07;;;;;;;18.25;11.90;;;7.00;99.90;;;;;;4929333;29;20104;-64
2021/10/24 04:00:33;;;;;;;19.63;12.43;;;6.90;99.90;;;;;;4906188;29;20056;-64
2021/10/24 04:03:04;;;;;;;16.73;11.30;;;6.90;99.90;;;;;;4928906;29;20044;-64
2021/10/24 04:05:30;;;;;;;17.20;12.57;;;6.90;99.90;;;;;;4911807;29;20047;-64
2021/10/24 04:07:56;;;;;;;21.33;12.35;;;6.90;99.90;;;;;;4912047;29;20091;-64
2021/10/24 04:10:24;;;;;;;18.05;12.57;;;6.80;99.90;;;;;;4910952;29;20059;-64
2021/10/24 04:12:51;;;;;;;18.77;12.18;;;6.80;99.90;;;;;;4929195;29;20060;-64
2021/10/24 04:15:18;;;;;;;20.38;13.20;;;6.80;99.90;;;;;;4928626;29;20048;-64
2021/10/24 04:17:44;;;;;;;19.55;13.70;;;6.70;99.90;;;;;;4912231;29;20048;-64
2021/10/24 04:20:12;;;;;;;20.27;13.88;;;6.70;99.90;;;;;;4909294;29;20056;-64
2021/10/24 04:22:39;;;;;;;17.65;12.15;;;6.70;99.90;;;;;;4912005;29;20063;-64
2021/10/24 04:25:08;;;;;;;18.65;12.48;;;6.70;99.90;;;;;;4911874;29;20056;-64
2021/10/24 04:27:33;;;;;;;20.05;12.88;;;6.60;99.90;;;;;;4928676;29;20047;-64
2021/10/24 04:30:00;;;;;;;18.30;13.27;;;6.60;99.90;;;;;;4942575;29;20068;-63
2021/10/24 04:32:26;;;;;;;18.70;12.98;;;6.60;99.90;;;;;;4911870;29;20112;-64
2021/10/24 04:34:52;;;;;;;17.63;13.02;;;6.50;99.90;;;;;;4924826;29;20040;-64
2021/10/24 04:37:18;;;;;;;20.30;13.05;;;6.50;99.90;;;;;;4911524;29;20086;-64
2021/10/24 04:39:44;;;;;;;19.15;13.02;;;6.50;99.90;;;;;;4926580;29;20528;-64
2021/10/24 04:42:10;;;;;;;20.13;12.90;;;6.50;99.90;;;;;;4910225;29;20044;-64
2021/10/24 04:44:36;;;;;;;22.30;13.90;;;6.50;99.90;;;;;;4910612;29;20083;-64
2021/10/24 04:47:03;;;;;;;19.13;12.85;;;6.50;99.90;;;;;;4911603;29;20237;-64
2021/10/24 04:49:29;;;;;;;20.00;13.98;;;6.40;99.90;;;;;;4921835;29;20052;-64
2021/10/24 04:51:54;;;;;;;18.20;12.07;;;6.40;99.90;;;;;;4928016;29;20573;-64
2021/10/24 04:54:21;;;;;;;16.88;12.38;;;6.30;99.90;;;;;;4942872;29;20040;-64
2021/10/24 04:56:47;;;;;;;23.02;14.00;;;6.40;99.90;;;;;;4910961;29;20059;-64
2021/10/24 04:59:13;;;;;;;18.70;12.30;;;6.30;99.90;;;;;;4942991;29;20048;-64
2021/10/24 05:01:38;;;;;;;22.65;13.77;;;6.30;99.90;;;;;;4924136;29;20148;-64
2021/10/24 05:04:04;;;;;;;17.95;12.95;;;6.30;99.90;;;;;;4911278;29;20074;-64
2021/10/24 05:06:30;;;;;;;21.23;13.95;;;6.30;99.90;;;;;;4925964;29;20068;-63
2021/10/24 05:08:55;;;;;;;20.92;14.30;;;6.20;99.90;;;;;;4943060;29;20048;-63
2021/10/24 05:11:21;;;;;;;21.55;12.73;;;6.20;99.90;;;;;;4928577;29;20047;-63
2021/10/24 05:13:47;;;;;;;20.95;13.30;;;6.20;99.90;;;;;;4942717;29;20390;-63
2021/10/24 05:16:12;;;;;;;17.67;13.48;;;6.20;99.90;;;;;;4942362;29;20048;-63
2021/10/24 05:18:38;;;;;;;21.65;14.85;;;6.20;99.90;;;;;;4928041;29;20188;-64
2021/10/24 05:21:04;;;;;;;21.25;13.93;;;6.20;99.90;;;;;;4942627;29;20158;-63
2021/10/24 05:23:31;;;;;;;18.60;12.77;;;6.10;99.90;;;;;;4928684;29;20051;-63
2021/10/24 05:25:58;;;;;;;20.88;13.13;;;6.10;99.90;;;;;;4911448;29;20111;-64
2021/10/24 05:28:24;;;;;;;23.48;13.30;;;6.10;99.90;;;;;;4910840;29;20052;-63
2021/10/24 05:30:50;;;;;;;20.33;12.90;;;6.00;99.90;;;;;;4927321;29;20127;-64
2021/10/24 05:33:16;;;;;;;18.98;12.73;;;6.00;99.90;;;;;;4927636;29;20493;-63
2021/10/24 05:35:42;;;;;;;21.05;13.55;;;5.90;99.90;;;;;;4925721;29;20116;-63
2021/10/24 05:38:08;;;;;;;21.20;14.20;;;5.90;99.90;;;;;;4910925;29;20056;-64
2021/10/24 05:40:33;;;;;;;22.73;15.10;;;5.80;99.90;;;;;;4944365;29;20071;-64
2021/10/24 05:42:59;;;;;;;24.67;15.02;;;5.80;99.90;;;;;;4918249;29;20129;-64
2021/10/24 05:45:25;;;;;;;18.48;13.60;;;5.80;99.90;;;;;;4951941;29;20055;-64
2021/10/24 05:47:50;;;;;;;19.85;14.00;;;5.90;99.90;;;;;;4901474;29;20071;-64
2021/10/24 05:50:16;;;;;;;21.30;13.70;;;5.80;99.90;;;;;;4917747;29;20090;-64
2021/10/24 05:52:42;;;;;;;22.00;14.18;;;5.90;99.90;;;;;;4919153;29;20139;-63
2021/10/24 05:55:08;;;;;;;20.38;14.32;;;5.90;99.90;;;;;;4946425;29;20052;-64
2021/10/24 05:57:34;;;;;;;20.00;14.05;;;5.90;99.90;;;;;;4932988;29;20078;-64
2021/10/24 06:00:00;;;;;;;21.70;13.82;;;5.90;99.90;;;;;;4941735;29;20061;-64
2021/10/24 06:02:25;;;;;;;19.80;13.82;;;6.00;99.90;;;;;;4911310;29;20052;-64
2021/10/24 06:04:51;;;;;;;21.98;14.90;;;6.10;99.90;;;;;;4929157;29;20112;-64
2021/10/24 06:07:17;;;;;;;19.23;14.00;;;6.00;99.90;;;;;;4945825;29;20515;-63
2021/10/24 06:15:08;;;;;;;18.48;14.18;;;6.00;99.90;;;;;;4929899;29;20502;-64
2021/10/24 06:17:34;;;;;;;22.13;14.65;;;5.90;99.90;;;;;;4913841;29;20056;-64
2021/10/24 06:20:00;;;;;;;21.02;14.05;;;6.00;99.90;;;;;;4930861;29;20099;-64
2021/10/24 06:22:26;;;;;;;20.08;14.13;;;5.90;99.90;;;;;;4912858;29;20080;-64
2021/10/24 06:24:53;;;;;;;17.85;12.98;;;6.00;99.90;;;;;;4946090;29;20059;-64
2021/10/24 06:27:19;;;;;;;24.00;14.50;;;6.00;99.90;;;;;;4931526;29;20043;-64
2021/10/24 06:29:44;;;;;;;24.88;15.80;;;6.00;99.90;;;;;;4930867;29;20057;-63
2021/10/24 06:32:10;;;;;;;22.58;15.02;;;6.00;99.90;;;;;;4945086;29;20044;-64
2021/10/24 06:34:36;;;;;;;23.35;15.73;;;6.10;99.90;;;;;;4913732;29;20052;-64
2021/10/24 06:37:03;;;;;;;23.70;14.80;;;6.10;99.90;;;;;;4913085;29;20051;-64
2021/10/24 06:39:29;;;;;;;20.48;13.95;;;6.10;99.90;;;;;;4917800;29;20072;-64
2021/10/24 06:41:54;;;;;;;19.00;12.93;;;6.10;99.90;;;;;;4912685;29;20056;-64
2021/10/24 06:44:20;;;;;;;18.77;13.93;;;6.10;99.90;;;;;;4945191;29;20040;-64
2021/10/24 06:46:46;;;;;;;20.80;13.48;;;6.10;99.90;;;;;;4929999;29;20063;-64
2021/10/24 06:49:12;;;;;;;18.80;13.35;;;6.10;99.90;;;;;;4913568;29;20071;-64
2021/10/24 06:51:38;;;;;;;18.98;14.02;;;6.10;99.90;;;;;;4927183;29;20055;-64
2021/10/24 06:54:04;;;;;;;19.15;14.23;;;6.10;99.90;;;;;;4911851;29;20505;-63
2021/10/24 06:56:30;;;;;;;23.30;14.02;;;6.10;99.90;;;;;;4940887;29;20060;-64
2021/10/24 06:58:56;;;;;;;17.88;13.60;;;6.10;99.90;;;;;;4910177;29;20053;-64
2021/10/24 07:01:21;;;;;;;21.17;13.93;;;6.10;99.90;;;;;;4907571;29;20060;-64
2021/10/24 07:03:47;;;;;;;17.98;13.02;;;6.20;99.90;;;;;;4923251;29;20112;-64
2021/10/24 07:06:13;;;;;;;21.45;13.70;;;6.20;99.90;;;;;;4941206;29;20052;-64
2021/10/24 07:08:39;;;;;;;20.42;13.65;;;6.20;99.90;;;;;;4911125;29;20056;-65
2021/10/24 07:11:05;;;;;;;21.45;14.35;;;6.20;99.90;;;;;;4912204;29;20052;-64
2021/10/24 07:13:31;;;;;;;20.13;14.23;;;6.20;99.90;;;;;;4914596;29;20044;-65
2021/10/24 07:15:57;;;;;;;19.60;12.57;;;6.30;99.90;;;;;;4911118;29;20375;-64
2021/10/24 07:18:23;;;;;;;18.40;13.70;;;6.30;99.90;;;;;;4910358;29;20105;-64
2021/10/24 07:20:49;;;;;;;19.50;13.70;;;6.40;99.90;;;;;;4909263;29;20052;-64
2021/10/24 07:23:14;;;;;;;20.85;13.82;;;6.40;99.90;;;;;;4908724;29;20233;-64
2021/10/24 07:25:40;;;;;;;15.98;13.02;;;6.40;99.90;;;;;;4908413;29;20058;-64
2021/10/24 07:28:06;;;;;;;19.73;13.18;;;6.50;99.90;;;;;;4909784;29;20049;-64
2021/10/24 07:30:32;;;;;;;20.02;13.82;;;6.50;99.90;;;;;;4910290;29;20045;-64
2021/10/24 07:32:58;;;;;;;19.63;13.82;;;6.50;99.90;;;;;;4909072;29;20044;-64
2021/10/24 07:35:24;;;;;;;19.63;13.30;;;6.60;99.90;;;;;;4909442;29;20052;-64
2021/10/24 07:37:50;;;;;;;18.52;13.20;;;6.70;99.90;;;;;;4909791;29;20049;-63
2021/10/24 07:40:18;;;;;;;17.20;13.20;;;6.70;99.90;;;;;;4911248;29;20453;-64
2021/10/24 07:42:44;;;;;;;16.23;12.65;;;6.80;99.90;;;;;;4910888;29;20048;-64
2021/10/24 07:45:10;;;;;;;20.42;13.23;;;6.80;99.90;;;;;;4910723;29;20088;-64
2021/10/24 07:47:37;;;;;;;14.75;12.40;;;6.80;99.90;;;;;;4908524;29;20052;-64
2021/10/24 07:50:06;;;;;;;18.15;12.18;;;6.90;99.90;;;;;;4908554;29;20062;-64
2021/10/24 07:52:33;;;;;;;18.38;12.45;;;7.00;99.90;;;;;;4907934;29;20041;-64
2021/10/24 07:54:58;;;;;;;17.33;11.70;;;7.00;99.90;;;;;;4908740;29;20052;-65
2021/10/24 07:57:24;;;;;;;21.15;13.30;;;7.10;99.90;;;;;;4940123;29;20121;-65
2021/10/24 07:59:50;;;;;;;17.85;12.32;;;7.20;99.90;;;;;;4905878;29;20056;-64
2021/10/24 08:02:18;;;;;;;18.13;13.43;;;7.20;99.90;;;;;;4891992;29;20056;-64
2021/10/24 08:04:45;;;;;;;15.48;11.65;;;7.30;99.90;;;;;;4906767;29;20092;-64
2021/10/24 08:07:11;;;;;;;16.02;11.52;;;7.40;99.90;;;;;;4908092;29;20052;-65
2021/10/24 08:09:36;;;;;;;16.67;12.70;;;7.40;99.90;;;;;;4890312;29;20501;-62
2021/10/24 08:12:03;;;;;;;16.77;11.85;;;7.40;99.90;;;;;;4906353;29;20514;-63
2021/10/24 08:14:29;;;;;;;15.50;11.57;;;7.40;99.90;;;;;;4896520;29;20101;-62
2021/10/24 08:16:56;;;;;;;17.52;12.52;;;7.50;99.90;;;;;;4903158;29;20036;-63
2021/10/24 08:19:22;;;;;;;16.58;11.55;;;7.60;99.90;;;;;;4907431;29;20108;-60
2021/10/24 08:21:49;;;;;;;14.75;10.82;;;7.60;99.90;;;;;;4910250;29;20049;-60
2021/10/24 08:24:15;;;;;;;17.77;11.38;;;7.70;99.90;;;;;;4908343;29;20048;-60
2021/10/24 08:26:41;;;;;;;18.40;11.73;;;7.80;99.90;;;;;;4907774;29;20079;-60
2021/10/24 08:29:07;;;;;;;18.48;11.90;;;7.90;99.90;;;;;;4939445;29;20079;-60
2021/10/24 08:31:33;;;;;;;16.52;11.73;;;8.00;99.90;;;;;;4908194;29;20053;-60
2021/10/24 08:34:00;;;;;;;16.02;11.18;;;8.10;99.90;;;;;;4940366;29;20045;-60
2021/10/24 08:36:27;;;;;;;16.88;10.73;;;8.10;99.90;;;;;;4907783;29;20098;-60
2021/10/24 08:38:54;;;;;;;17.13;10.70;;;8.20;99.90;;;;;;4939996;29;20068;-60
2021/10/24 08:41:28;;;;;;;15.98;10.93;;;8.30;99.90;;;;;;4908566;29;20044;-60
2021/10/24 08:44:02;;;;;;;15.75;10.65;;;8.30;99.90;;;;;;4908376;29;20048;-62
2021/10/24 08:46:28;;;;;;;18.45;11.57;;;8.40;99.90;;;;;;4940170;29;20052;-61
2021/10/24 08:48:56;;;;;;;16.15;11.55;;;8.60;99.90;;;;;;4909985;29;20055;-60
2021/10/24 08:51:23;;;;;;;15.25;10.82;;;8.60;99.90;;;;;;4908551;29;20060;-60
2021/10/24 08:53:49;;;;;;;18.77;10.05;;;8.70;99.90;;;;;;4908411;29;20056;-61
2021/10/24 08:56:24;;;;;;;13.45;10.45;;;8.80;99.90;;;;;;4939022;29;20071;-61
2021/10/24 08:58:51;;;;;;;16.90;10.75;;;8.80;99.90;;;;;;4909574;29;20056;-60
2021/10/24 09:01:17;;;;;;;13.23;10.35;;;9.00;99.90;;;;;;4908551;29;20092;-60
2021/10/24 09:04:08;;;;;;;16.70;10.65;;;9.10;99.90;;;;;;4939535;29;20052;-60
2021/10/24 09:06:42;;;;;;;11.48;9.23;;;9.60;99.90;;;;;;4902329;29;20143;-60
2021/10/24 09:09:13;;;;;;;13.10;10.32;;;9.80;99.90;;;;;;4903813;29;20045;-60
2021/10/24 09:11:50;;;;;;;14.43;9.80;;;9.80;99.90;;;;;;4906919;29;20056;-61
2021/10/24 09:14:40;;;;;;;11.98;8.68;;;10.00;99.90;;;;;;4907995;29;20076;-60
2021/10/24 09:17:12;;;;;;;14.10;9.18;;;10.10;99.90;;;;;;4937224;29;20080;-61
2021/10/24 09:19:41;;;;;;;13.88;9.13;;;10.20;99.90;;;;;;4876232;29;20052;-61
2021/10/24 09:22:27;;;;;;;15.30;9.35;;;10.00;99.90;;;;;;4911309;29;20072;-62
2021/10/24 09:25:13;;;;;;;16.20;8.65;;;10.30;99.90;;;;;;4912081;29;20056;-62
2021/10/24 09:27:57;;;;;;;13.75;8.68;;;10.40;99.90;;;;;;4911695;29;20147;-64
2021/10/24 09:30:27;;;;;;;13.95;8.88;;;10.50;99.90;;;;;;4906550;29;20705;-61
2021/10/24 09:32:58;;;;;;;15.70;8.88;;;10.60;99.90;;;;;;4907273;29;20545;-61
2021/10/24 09:35:35;;;;;;;12.65;8.15;;;10.70;99.90;;;;;;4903036;29;20057;-61
2021/10/24 09:38:03;;;;;;;11.75;8.80;;;10.80;99.90;;;;;;4909374;29;20060;-61
2021/10/24 09:40:50;;;;;;;11.50;8.00;;;10.90;99.90;;;;;;4893733;29;20048;-62
2021/10/24 09:43:25;;;;;;;13.27;8.95;;;11.10;99.90;;;;;;4910368;29;20413;-62
2021/10/24 09:45:57;;;;;;;11.15;8.68;;;11.20;99.90;;;;;;4902112;29;20078;-61
2021/10/24 09:48:28;;;;;;;15.95;9.10;;;11.30;99.90;;;;;;4912284;29;20056;-61
2021/10/24 09:50:59;;;;;;;12.38;8.07;;;11.30;99.90;;;;;;4900218;29;20150;-62
2021/10/24 09:53:35;;;;;;;12.57;8.05;;;11.30;99.90;;;;;;4926797;29;20426;-61
2021/10/24 09:56:01;;;;;;;13.15;7.93;;;11.50;99.90;;;;;;4898954;29;20036;-61
2021/10/24 09:58:38;;;;;;;12.70;8.10;;;11.60;99.90;;;;;;4916250;29;20056;-61
2021/10/24 10:01:11;;;;;;;12.63;7.70;;;11.60;99.90;;;;;;4895470;29;20062;-61
2021/10/24 10:03:38;;;;;;;9.93;7.40;;;11.70;99.90;;;;;;4914145;29;20049;-61
2021/10/24 10:06:04;;;;;;;11.55;7.07;;;11.80;99.90;;;;;;4901033;29;20602;-61
2021/10/24 10:08:30;;;;;;;11.38;7.47;;;11.80;99.90;;;;;;4927905;29;20037;-61
2021/10/24 10:11:08;;;;;;;9.75;7.32;;;12.00;99.90;;;;;;4904471;29;20078;-61
2021/10/24 10:13:39;;;;;;;11.23;7.00;;;12.20;99.90;;;;;;4913233;29;20060;-61
2021/10/24 10:16:15;;;;;;;8.32;6.13;;;12.30;99.90;;;;;;4902171;29;20055;-61
2021/10/24 10:18:56;;;;;;;9.57;5.47;;;12.40;99.90;;;;;;4904146;29;20140;-61
2021/10/24 10:21:28;;;;;;;8.63;5.57;;;12.70;99.90;;;;;;4905570;29;20325;-61
2021/10/24 10:23:54;;;;;;;9.80;5.82;;;12.80;99.90;;;;;;4912586;29;20056;-61
2021/10/24 10:26:39;;;;;;;9.15;5.75;;;13.00;99.90;;;;;;4897277;29;20063;-61
2021/10/24 10:29:11;;;;;;;8.00;5.28;;;13.10;99.90;;;;;;4929403;29;20504;-62
2021/10/24 10:31:37;;;;;;;10.70;6.40;;;13.30;99.90;;;;;;4904812;29;20056;-62
2021/10/24 10:34:08;;;;;;;9.57;5.60;;;13.40;99.90;;;;;;4911540;29;20139;-63
2021/10/24 10:36:49;;;;;;;11.40;6.32;;;13.40;99.90;;;;;;4901504;29;20060;-62
2021/10/24 10:39:36;;;;;;;8.65;4.97;;;13.40;99.90;;;;;;4908261;29;20585;-62
2021/10/24 10:42:22;;;;;;;8.50;4.82;;;13.60;99.90;;;;;;4907976;29;20055;-61
2021/10/24 10:45:32;;;;;;;7.32;5.38;;;13.60;99.90;;;;;;4907595;29;20044;-61
2021/10/24 10:47:59;;;;;;;;;;;13.60;99.90;;;;;;4871711;29;20050;-62
2021/10/24 10:50:28;;;;;;;6.40;4.93;;;13.50;99.90;;;;;;4878562;29;19928;-62
2021/10/24 10:52:55;;;;;;;9.48;5.38;;;13.50;99.90;;;;;;4851392;29;20057;-62
2021/10/24 10:55:22;;;;;;;9.15;5.38;;;13.30;99.90;;;;;;4877729;29;20069;-62
2021/10/24 10:57:48;;;;;;;8.73;5.50;;;13.50;99.90;;;;;;4849889;29;20041;-61
2021/10/24 11:00:37;;;;;;;8.05;5.57;;;13.70;99.90;;;;;;4862651;29;20525;-61
2021/10/24 11:03:04;;;;;;;7.30;5.10;;;13.90;99.90;;;;;;4854127;29;20053;-62
2021/10/24 11:05:33;;;;;;;7.68;3.92;;;13.80;99.90;;;;;;4846370;29;20497;-62
2021/10/24 11:07:59;;;;;;;9.15;4.38;;;13.90;99.90;;;;;;4868881;29;20083;-62
2021/10/24 11:10:45;;;;;;;7.78;4.22;;;14.20;99.90;;;;;;4862195;29;20079;-62
2021/10/24 11:13:26;;;;;;;8.10;3.97;;;14.40;99.90;;;;;;4807548;29;20050;-62
2021/10/24 11:15:52;;;;;;;4.72;3.25;;;14.60;99.90;;;;;;4868775;29;20061;-62
2021/10/24 11:18:33;;;;;;;8.20;4.70;;;14.60;99.90;;;;;;4852754;29;20327;-62
2021/10/24 11:20:59;;;;;;;6.63;3.90;;;14.40;99.90;;;;;;4859257;29;20148;-62
2021/10/24 11:23:30;;;;;;;6.15;4.25;;;14.60;99.90;;;;;;4915372;29;20056;-62
2021/10/24 11:25:56;;;;;;;8.50;4.40;;;14.60;99.90;;;;;;4895121;29;20075;-63
2021/10/24 11:28:25;;;;;;;10.23;5.13;;;14.50;99.90;;;;;;4919140;29;20068;-63
2021/10/24 11:31:01;;;;;;;8.23;5.03;;;14.60;99.90;;;;;;4901932;29;20056;-64
2021/10/24 11:33:41;;;;;;;8.70;4.07;;;14.60;99.90;;;;;;4932731;29;20080;-62
2021/10/24 11:36:07;;;;;;;6.38;3.95;;;14.70;99.90;;;;;;4897206;29;20044;-61
2021/10/24 11:38:32;;;;;;;6.85;4.20;;;15.10;99.90;;;;;;4915528;29;20072;-64
2021/10/24 11:40:58;;;;;;;5.28;3.83;;;15.20;99.90;;;;;;4896084;29;20060;-61
2021/10/24 11:43:25;;;;;;;8.88;3.90;;;15.20;99.90;;;;;;4920191;29;20045;-61
2021/10/24 11:46:00;;;;;;;7.95;3.67;;;15.20;99.90;;;;;;4904692;29;20045;-60
2021/10/24 11:48:28;;;;;;;5.65;3.13;;;15.30;99.90;;;;;;4892132;29;20063;-61
2021/10/24 11:50:58;;;;;;;5.78;3.10;;;15.70;99.90;;;;;;4906012;29;20056;-61
2021/10/24 11:53:24;;;;;;;;;;;15.80;99.90;;;;;;4895453;29;20045;-61
2021/10/24 11:55:56;;;;;;;5.80;3.25;;;15.70;99.90;;;;;;4934337;29;19950;-61
2021/10/24 12:01:12;;;;;;;7.63;3.33;;;15.80;99.90;;;;;;4899257;29;20101;-61
2021/10/24 12:03:43;;;;;;;7.47;3.90;;;15.50;99.90;;;;;;4893667;29;20259;-61
2021/10/24 12:06:11;;;;;;;5.55;4.00;;;15.50;99.90;;;;;;4896785;29;20044;-62
2021/10/24 12:08:48;;;;;;;7.97;3.80;;;15.70;99.90;;;;;;4918143;29;20071;-62
2021/10/24 12:11:17;;;;;;;6.18;3.50;;;15.90;99.90;;;;;;4894395;29;20053;-61
2021/10/24 12:13:45;;;;;;;6.57;4.03;;;15.60;99.90;;;;;;4915071;29;20052;-61
2021/10/24 12:16:32;;;;;;;6.05;3.90;;;15.80;99.90;;;;;;4893122;29;20104;-62
2021/10/24 12:19:28;;;;;;;4.85;3.38;;;15.70;99.90;;;;;;4879153;29;20575;-62
2021/10/24 12:22:00;;;;;;;7.13;4.35;;;15.80;99.90;;;;;;4901755;29;20062;-61
2021/10/24 12:24:40;;;;;;;8.00;4.60;;;16.20;99.90;;;;;;4920953;29;20044;-62
2021/10/24 12:27:16;;;;;;;;;;;16.10;99.90;;;;;;4903036;29;20052;-61
2021/10/24 12:29:58;;;;;;;7.18;4.63;;;16.20;99.90;;;;;;4912161;29;19994;-60
2021/10/24 12:32:23;;;;;;;7.97;4.72;;;15.10;99.90;;;;;;4895110;29;20055;-60
2021/10/24 12:35:05;;;;;;;8.10;4.90;;;15.40;99.90;;;;;;4508336;29;10000017;-60
2021/10/24 12:37:32;;;;;;;8.30;4.50;;;15.10;99.90;;;;;;4878621;29;20139;-60
2021/10/24 12:40:34;;;;;;;6.95;4.32;;;15.40;99.90;;;;;;4879746;29;20048;-60
2021/10/24 12:43:08;;;;;;;6.05;4.18;;;16.00;99.90;;;;;;4836100;29;20088;-61
2021/10/24 12:45:59;;;;;;;8.52;5.22;;;16.00;99.90;;;;;;4854039;29;20640;-61
2021/10/24 12:48:47;;;;;;;6.68;5.00;;;15.30;99.90;;;;;;4850487;29;20049;-61
2021/10/24 12:51:27;;;;;;;8.10;5.25;;;15.30;99.90;;;;;;4854855;29;20054;-61
2021/10/24 12:53:56;;;;;;;9.20;5.25;;;15.60;99.90;;;;;;4854766;29;20072;-61
2021/10/24 12:56:22;;;;;;;8.38;4.35;;;15.50;99.90;;;;;;4856829;29;20057;-61